Time;durP1;ratioP1;P1;durP2;ratioP2;P2;SDS_P1;SDS_P2;PMS_P1;PMS_P2;Temp;Humidity;BMP_temperature;BMP_pressure;BME280_temperature;BME280_humidity;BME280_pressure;Samples;Min_cycle;Max_cycle;Signal;HPM_P1;HPM_P2
2021/12/16 00:01:42;;;;;;;27.38;10.73;;;7.80;99.90;;;;;;5115209;28;20047;-51
2021/12/16 00:07:08;;;;;;;27.77;10.35;;;7.90;99.90;;;;;;5114851;28;20043;-53
2021/12/16 00:09:01;;;;;;;15.20;9.00;;;8.00;99.90;;;;;;5109031;28;20050;-52
2021/12/16 00:35:51;;;;;;;24.83;9.90;;;8.50;99.90;;;;;;5114202;28;20078;-53
2021/12/16 00:38:17;;;;;;;22.83;9.45;;;8.60;99.90;;;;;;5114188;28;20050;-52
2021/12/16 00:40:43;;;;;;;25.00;9.63;;;8.60;99.90;;;;;;5114248;28;20041;-53
2021/12/16 00:43:16;;;;;;;25.77;10.27;;;8.60;99.90;;;;;;5113148;28;20039;-52
2021/12/16 00:46:10;;;;;;;24.77;9.50;;;8.60;99.90;;;;;;5114182;28;20039;-53
2021/12/16 00:48:59;;;;;;;23.45;10.32;;;8.60;99.90;;;;;;5113908;28;20074;-51
2021/12/16 00:54:12;;;;;;;27.08;9.38;;;8.70;99.90;;;;;;5113989;28;20397;-52
2021/12/16 00:56:45;;;;;;;30.92;9.60;;;8.70;99.90;;;;;;5113800;28;20039;-53
2021/12/16 00:59:13;;;;;;;21.00;8.70;;;8.60;99.90;;;;;;5113461;28;20120;-52
2021/12/16 01:01:51;;;;;;;24.02;9.40;;;8.60;99.90;;;;;;5113912;28;20044;-51
2021/12/16 01:33:28;;;;;;;19.42;8.68;;;8.70;99.90;;;;;;5113747;28;20082;-53
2021/12/16 01:35:14;;;;;;;26.65;9.05;;;8.70;99.90;;;;;;5113094;28;20044;-51
2021/12/16 01:49:02;;;;;;;20.27;7.10;;;8.70;99.90;;;;;;5112999;28;20039;-53
2021/12/16 01:51:20;;;;;;;14.52;7.03;;;8.70;99.90;;;;;;5112842;28;20096;-52
2021/12/16 01:58:41;;;;;;;18.92;8.05;;;8.80;99.90;;;;;;5112793;28;20089;-53
2021/12/16 02:01:27;;;;;;;24.52;9.43;;;8.80;99.90;;;;;;5113326;27;20036;-52
2021/12/16 02:04:00;;;;;;;19.60;8.15;;;8.80;99.90;;;;;;5112645;28;20031;-53
2021/12/16 02:09:20;;;;;;;18.58;7.75;;;8.80;99.90;;;;;;5112906;28;20051;-53
2021/12/16 02:11:58;;;;;;;30.02;9.23;;;8.80;99.90;;;;;;5112630;28;20063;-53
2021/12/16 02:28:27;;;;;;;19.05;7.53;;;8.80;99.90;;;;;;5116678;28;20114;-52
2021/12/16 02:38:47;;;;;;;20.95;8.13;;;8.90;99.90;;;;;;5116309;28;20058;-52
2021/12/16 02:41:14;;;;;;;18.35;8.35;;;8.90;99.90;;;;;;5116236;28;20070;-53
2021/12/16 02:44:06;;;;;;;27.50;7.78;;;8.90;99.90;;;;;;5116256;28;20424;-53
2021/12/16 02:49:09;;;;;;;17.13;7.55;;;8.90;99.90;;;;;;5116191;28;20085;-53
2021/12/16 02:51:35;;;;;;;24.83;8.00;;;8.90;99.90;;;;;;5116112;28;20078;-52
2021/12/16 02:54:05;;;;;;;24.58;7.82;;;8.80;99.90;;;;;;5115181;28;20132;-54
2021/12/16 02:56:32;;;;;;;22.10;8.82;;;8.80;99.90;;;;;;5116293;28;20043;-53
2021/12/16 02:58:58;;;;;;;26.95;7.85;;;8.80;99.90;;;;;;5114677;28;20092;-53
2021/12/16 03:01:36;;;;;;;17.08;7.18;;;8.80;99.90;;;;;;5116073;28;20490;-53
2021/12/16 03:04:06;;;;;;;21.52;7.38;;;8.70;99.90;;;;;;5115922;28;20039;-53
2021/12/16 03:06:32;;;;;;;21.63;8.00;;;8.70;99.90;;;;;;5116117;27;20417;-53
2021/12/16 03:09:00;;;;;;;20.23;7.43;;;8.70;99.90;;;;;;5115837;28;20043;-53
2021/12/16 03:11:39;;;;;;;24.25;7.40;;;8.60;99.90;;;;;;5115609;28;20059;-53
2021/12/16 03:19:36;;;;;;;16.98;6.57;;;8.50;99.90;;;;;;5115800;28;20044;-52
2021/12/16 03:22:04;;;;;;;17.48;7.43;;;8.40;99.90;;;;;;5115673;28;20039;-52
2021/12/16 03:35:24;;;;;;;20.40;8.30;;;8.20;99.90;;;;;;5115412;28;20100;-53
2021/12/16 03:37:50;;;;;;;17.08;6.60;;;8.20;99.90;;;;;;5115169;28;20143;-54
2021/12/16 03:40:16;;;;;;;18.73;6.97;;;8.10;99.90;;;;;;5115232;28;20114;-52
2021/12/16 03:42:51;;;;;;;17.75;7.82;;;8.10;99.90;;;;;;5115303;28;20074;-51
2021/12/16 03:48:35;;;;;;;16.05;7.10;;;8.00;99.90;;;;;;5115238;28;20446;-53
2021/12/16 03:51:04;;;;;;;22.52;8.02;;;8.00;99.90;;;;;;5115090;28;20082;-53
2021/12/16 03:53:30;;;;;;;;;;;8.00;99.90;;;;;;5115401;28;20051;-53
2021/12/16 03:55:56;;;;;;;17.83;7.50;;;7.90;99.90;;;;;;5115042;28;19915;-52
2021/12/16 03:58:21;;;;;;;21.33;9.25;;;7.90;99.90;;;;;;5114776;28;20067;-52
2021/12/16 04:01:01;;;;;;;17.52;7.13;;;7.90;99.90;;;;;;5114810;28;20036;-51
2021/12/16 04:03:27;;;;;;;18.48;8.20;;;7.80;99.90;;;;;;5114805;28;20043;-52
2021/12/16 04:05:53;;;;;;;26.13;7.05;;;7.70;99.90;;;;;;5115059;27;20050;-53
2021/12/16 04:08:19;;;;;;;25.25;8.63;;;7.70;99.90;;;;;;5114801;28;20035;-53
2021/12/16 04:11:05;;;;;;;18.15;7.85;;;7.60;99.90;;;;;;5114444;28;20101;-53
2021/12/16 04:13:40;;;;;;;21.92;8.73;;;7.60;99.90;;;;;;5114669;28;20074;-52
2021/12/16 04:16:06;;;;;;;19.45;8.45;;;7.60;99.90;;;;;;5114684;28;20040;-52
2021/12/16 04:18:32;;;;;;;15.88;8.25;;;7.60;99.90;;;;;;5114653;28;20122;-53
2021/12/16 04:20:58;;;;;;;22.00;8.20;;;7.50;99.90;;;;;;5114302;28;20118;-53
2021/12/16 04:23:24;;;;;;;15.68;7.95;;;7.50;99.90;;;;;;5114169;28;20442;-53
2021/12/16 04:25:50;;;;;;;15.40;8.23;;;7.40;99.90;;;;;;5114371;28;20489;-52
2021/12/16 04:28:23;;;;;;;16.13;7.80;;;7.40;99.90;;;;;;5114461;28;20427;-51
2021/12/16 04:30:50;;;;;;;22.73;9.40;;;7.40;99.90;;;;;;5114628;28;20043;-52
2021/12/16 04:33:16;;;;;;;22.27;7.43;;;7.30;99.90;;;;;;5114022;28;20040;-53
2021/12/16 04:35:42;;;;;;;17.73;9.35;;;7.30;99.90;;;;;;5114088;28;20194;-52
2021/12/16 04:38:14;;;;;;;20.38;8.77;;;7.30;99.90;;;;;;5114193;28;20040;-51
2021/12/16 04:40:44;;;;;;;17.40;8.45;;;7.20;99.90;;;;;;5114325;28;20075;-51
2021/12/16 04:43:09;;;;;;;20.88;9.32;;;7.20;99.90;;;;;;5114235;28;20035;-53
2021/12/16 04:45:35;;;;;;;15.35;8.70;;;7.20;99.90;;;;;;5114292;28;20035;-52
2021/12/16 04:48:04;;;;;;;19.05;7.57;;;7.20;99.90;;;;;;5113537;28;20077;-52
2021/12/16 04:50:30;;;;;;;16.37;7.73;;;7.10;99.90;;;;;;5113996;28;20050;-51
2021/12/16 04:52:55;;;;;;;15.68;8.25;;;7.10;99.90;;;;;;5114154;28;20043;-52
2021/12/16 04:55:23;;;;;;;19.05;9.00;;;7.00;99.90;;;;;;5114182;28;20043;-52
2021/12/16 04:57:49;;;;;;;13.25;7.45;;;6.90;99.90;;;;;;5114029;28;20110;-52
2021/12/16 05:00:19;;;;;;;12.57;7.13;;;6.90;99.90;;;;;;5114283;28;20032;-52
2021/12/16 05:02:46;;;;;;;16.55;7.55;;;6.90;99.90;;;;;;5113662;28;20050;-51
2021/12/16 05:05:12;;;;;;;14.40;7.90;;;6.90;99.90;;;;;;5113753;28;20028;-50
2021/12/16 05:07:40;;;;;;;17.27;7.70;;;6.90;99.90;;;;;;5114113;28;20047;-51
2021/12/16 05:10:10;;;;;;;17.88;8.07;;;6.90;99.90;;;;;;5113620;28;20051;-49
2021/12/16 05:12:43;;;;;;;17.17;8.27;;;7.00;99.90;;;;;;5112480;28;20499;-52
2021/12/16 05:15:17;;;;;;;19.95;9.20;;;6.90;99.90;;;;;;5113555;28;20035;-52
2021/12/16 05:17:47;;;;;;;17.23;9.05;;;6.90;99.90;;;;;;5113356;28;20050;-53
2021/12/16 05:20:17;;;;;;;20.90;9.48;;;7.00;99.90;;;;;;5113480;28;20047;-52
2021/12/16 05:25:45;;;;;;;18.85;9.65;;;7.00;99.90;;;;;;5113389;28;20040;-52
2021/12/16 05:28:11;;;;;;;17.08;8.05;;;7.00;99.90;;;;;;5112101;28;20051;-50
2021/12/16 05:30:37;;;;;;;20.95;8.82;;;6.90;99.90;;;;;;5113246;28;20071;-51
2021/12/16 05:33:04;;;;;;;18.83;8.48;;;7.00;99.90;;;;;;5113379;28;20117;-53
2021/12/16 05:35:30;;;;;;;17.45;8.80;;;7.00;99.90;;;;;;5113200;28;20039;-51
2021/12/16 05:37:56;;;;;;;19.35;9.15;;;7.00;99.90;;;;;;5113004;28;20040;-53
2021/12/16 05:40:25;;;;;;;20.50;8.93;;;7.00;99.90;;;;;;5112890;28;20053;-53
2021/12/16 05:43:00;;;;;;;21.25;9.43;;;7.00;99.90;;;;;;5113218;28;20114;-53
2021/12/16 05:45:28;;;;;;;22.15;9.00;;;7.00;99.90;;;;;;5113048;28;20044;-51
2021/12/16 05:47:56;;;;;;;20.88;9.65;;;7.00;99.90;;;;;;5113101;28;20092;-52
2021/12/16 05:50:24;;;;;;;21.83;9.00;;;7.00;99.90;;;;;;5113231;28;20039;-52
2021/12/16 05:52:49;;;;;;;14.27;9.45;;;7.00;99.90;;;;;;5112971;28;20035;-53
2021/12/16 05:55:16;;;;;;;20.02;9.25;;;7.00;99.90;;;;;;5112887;28;20392;-53
2021/12/16 05:57:44;;;;;;;18.35;9.02;;;7.00;99.90;;;;;;5113063;28;20047;-51
2021/12/16 06:00:18;;;;;;;17.10;8.70;;;7.00;99.90;;;;;;5111918;28;20075;-52
2021/12/16 06:02:44;;;;;;;13.52;7.82;;;7.00;99.90;;;;;;5112842;28;20039;-51
2021/12/16 06:05:10;;;;;;;14.85;8.55;;;6.90;99.90;;;;;;5112814;28;20080;-51
2021/12/16 06:07:36;;;;;;;22.50;10.05;;;6.90;99.90;;;;;;5112742;28;20036;-52
2021/12/16 06:10:04;;;;;;;23.95;10.25;;;7.00;99.90;;;;;;5112346;28;20043;-50
2021/12/16 06:12:30;;;;;;;19.95;8.90;;;7.00;99.90;;;;;;5112802;28;20046;-53
2021/12/16 06:15:23;;;;;;;16.67;9.50;;;7.00;99.90;;;;;;5112666;28;20055;-50
2021/12/16 06:28:23;;;;;;;20.60;9.40;;;6.90;99.90;;;;;;5089979;28;20032;-53
2021/12/16 06:30:49;;;;;;;19.48;10.07;;;6.90;99.90;;;;;;5089805;28;20504;-51
2021/12/16 06:33:19;;;;;;;21.75;10.48;;;6.90;99.90;;;;;;5089777;28;20442;-52
2021/12/16 06:35:45;;;;;;;17.98;9.23;;;6.90;99.90;;;;;;5089845;28;20447;-53
2021/12/16 06:38:11;;;;;;;20.40;10.60;;;6.90;99.90;;;;;;5089817;28;20051;-52
2021/12/16 06:40:37;;;;;;;24.35;9.43;;;6.90;99.90;;;;;;5089841;28;20183;-53
2021/12/16 06:43:04;;;;;;;21.60;9.93;;;6.90;99.90;;;;;;5089743;28;20036;-52
2021/12/16 06:45:35;;;;;;;14.95;9.05;;;6.90;99.90;;;;;;5089685;28;20075;-52
2021/12/16 06:48:05;;;;;;;18.42;10.15;;;6.80;99.90;;;;;;5089788;28;20075;-52
2021/12/16 06:53:14;;;;;;;18.10;8.88;;;6.80;99.90;;;;;;5089814;28;20052;-53
2021/12/16 06:55:50;;;;;;;18.92;8.63;;;6.70;99.90;;;;;;5089735;28;20051;-52
2021/12/16 07:01:11;;;;;;;22.85;9.77;;;6.80;99.90;;;;;;5112348;28;20040;-50
2021/12/16 07:03:49;;;;;;;21.25;10.68;;;6.80;99.90;;;;;;5112234;28;20115;-52
2021/12/16 07:06:21;;;;;;;16.85;9.38;;;6.80;99.90;;;;;;5112623;28;20047;-52
2021/12/16 07:08:49;;;;;;;16.83;9.15;;;6.80;99.90;;;;;;5112234;28;20040;-52
2021/12/16 07:11:15;;;;;;;19.40;9.70;;;6.70;99.90;;;;;;5113123;28;20105;-53
2021/12/16 07:13:42;;;;;;;18.77;9.73;;;6.70;99.90;;;;;;5116144;28;20135;-52
2021/12/16 07:16:12;;;;;;;21.13;9.02;;;6.70;99.90;;;;;;5116003;28;20047;-52
2021/12/16 07:18:38;;;;;;;17.48;8.05;;;6.70;99.90;;;;;;5115776;28;20089;-51
2021/12/16 07:21:05;;;;;;;16.50;8.00;;;6.70;99.90;;;;;;5115857;28;20040;-50
2021/12/16 07:23:31;;;;;;;14.77;8.10;;;6.60;99.90;;;;;;5115949;28;20104;-51
2021/12/16 07:25:58;;;;;;;15.55;8.57;;;6.60;99.90;;;;;;5115910;28;20039;-51
2021/12/16 07:28:25;;;;;;;19.75;8.15;;;6.60;99.90;;;;;;5115694;27;20040;-50
2021/12/16 07:30:51;;;;;;;20.73;9.48;;;6.50;99.90;;;;;;5115700;28;20415;-51
2021/12/16 07:33:17;;;;;;;17.05;9.13;;;6.50;99.90;;;;;;5115791;28;20045;-49
2021/12/16 07:35:44;;;;;;;16.50;8.95;;;6.50;99.90;;;;;;5115386;28;20051;-51
2021/12/16 07:38:10;;;;;;;19.48;8.40;;;6.50;99.90;;;;;;5115266;28;20497;-51
2021/12/16 07:40:38;;;;;;;12.82;7.82;;;6.50;99.90;;;;;;5115200;28;20358;-50
2021/12/16 07:45:43;;;;;;;20.48;9.45;;;6.40;99.90;;;;;;5115155;28;20039;-49
2021/12/16 07:48:11;;;;;;;20.67;8.90;;;6.40;99.90;;;;;;5115435;28;20043;-49
2021/12/16 07:50:37;;;;;;;14.27;7.80;;;6.40;99.90;;;;;;5115131;27;20169;-52
2021/12/16 07:53:05;;;;;;;17.98;8.93;;;6.40;99.90;;;;;;5115301;28;20067;-49
2021/12/16 07:55:31;;;;;;;16.92;9.43;;;6.40;99.90;;;;;;5115082;28;20046;-50
2021/12/16 07:57:56;;;;;;;14.95;9.27;;;6.40;99.90;;;;;;5113876;28;20057;-51
2021/12/16 08:00:27;;;;;;;22.02;9.70;;;6.40;99.90;;;;;;5115044;28;20043;-49
2021/12/16 08:02:53;;;;;;;21.35;10.65;;;6.40;99.90;;;;;;5115034;28;20115;-49
2021/12/16 08:05:23;;;;;;;19.45;10.20;;;6.50;99.90;;;;;;5114811;28;20069;-50
2021/12/16 08:07:49;;;;;;;22.58;10.75;;;6.50;99.90;;;;;;5114841;28;20039;-50
2021/12/16 08:10:18;;;;;;;19.42;10.63;;;6.60;99.90;;;;;;5114788;28;20110;-49
2021/12/16 08:12:44;;;;;;;25.20;11.60;;;6.70;99.90;;;;;;5114874;28;20043;-53
2021/12/16 08:15:10;;;;;;;29.95;11.95;;;6.80;99.90;;;;;;5114564;28;20124;-52
2021/12/16 08:17:36;;;;;;;23.85;11.48;;;6.80;99.90;;;;;;5114810;28;20039;-53
2021/12/16 08:20:04;;;;;;;19.45;10.32;;;6.80;99.90;;;;;;5114499;28;20054;-53
2021/12/16 08:22:30;;;;;;;20.90;11.27;;;6.80;99.90;;;;;;5113847;28;20054;-53
2021/12/16 08:24:56;;;;;;;21.67;10.88;;;6.90;99.90;;;;;;5114471;28;20039;-51
2021/12/16 08:27:22;;;;;;;20.70;10.48;;;6.80;99.90;;;;;;5114406;28;20036;-52
2021/12/16 08:29:48;;;;;;;26.08;12.15;;;6.90;99.90;;;;;;5114616;28;20044;-50
2021/12/16 08:32:14;;;;;;;22.25;11.27;;;6.90;99.90;;;;;;5114516;28;20043;-51
2021/12/16 08:34:42;;;;;;;22.40;11.65;;;7.00;99.90;;;;;;5114191;28;20118;-52
2021/12/16 08:37:09;;;;;;;26.25;12.40;;;7.00;99.90;;;;;;5114371;28;20504;-51
2021/12/16 08:39:36;;;;;;;24.30;11.25;;;7.00;99.90;;;;;;5113982;28;20047;-48
2021/12/16 08:42:04;;;;;;;22.45;11.13;;;7.00;99.90;;;;;;5114113;28;20173;-51
2021/12/16 08:44:30;;;;;;;26.35;12.05;;;7.10;99.90;;;;;;5114108;28;20118;-51
2021/12/16 08:47:01;;;;;;;33.80;13.35;;;7.10;99.90;;;;;;5114212;28;20169;-50
2021/12/16 08:49:26;;;;;;;27.95;12.63;;;7.10;99.90;;;;;;5114135;28;20110;-49
2021/12/16 08:51:55;;;;;;;19.48;13.00;;;7.20;99.90;;;;;;5114277;28;20545;-51
2021/12/16 08:54:22;;;;;;;26.60;12.45;;;7.20;99.90;;;;;;5114034;28;20044;-50
2021/12/16 08:56:49;;;;;;;27.35;12.18;;;7.20;99.90;;;;;;5114030;28;20047;-52
2021/12/16 08:59:15;;;;;;;28.40;13.95;;;7.20;99.90;;;;;;5113852;28;20043;-51
2021/12/16 09:01:45;;;;;;;23.60;13.80;;;7.30;99.90;;;;;;5113954;28;20046;-51
2021/12/16 09:04:11;;;;;;;30.52;12.90;;;7.40;99.90;;;;;;5112683;28;20059;-52
2021/12/16 09:06:37;;;;;;;32.80;13.13;;;7.40;99.90;;;;;;5113724;28;20405;-53
2021/12/16 09:09:05;;;;;;;25.35;13.57;;;7.40;99.90;;;;;;5113574;28;20051;-51
2021/12/16 09:11:36;;;;;;;27.83;14.52;;;7.40;99.90;;;;;;5113593;28;20062;-51
2021/12/16 09:14:03;;;;;;;24.58;13.18;;;7.40;99.90;;;;;;5113549;28;20426;-52
2021/12/16 09:16:31;;;;;;;32.20;14.50;;;7.40;99.90;;;;;;5113727;28;20044;-52
2021/12/16 09:18:57;;;;;;;28.23;14.35;;;7.50;99.90;;;;;;5113715;28;20070;-49
2021/12/16 09:21:27;;;;;;;33.75;15.07;;;7.50;99.90;;;;;;5113625;28;20027;-52
2021/12/16 09:23:53;;;;;;;31.60;13.95;;;7.50;99.90;;;;;;5113644;28;20085;-51
2021/12/16 09:26:21;;;;;;;28.35;13.40;;;7.60;99.90;;;;;;5113615;28;20042;-52
2021/12/16 09:28:47;;;;;;;38.35;14.45;;;7.60;99.90;;;;;;5112431;28;20040;-51
2021/12/16 09:31:16;;;;;;;36.80;16.30;;;7.60;99.90;;;;;;5113673;28;20050;-50
2021/12/16 09:33:47;;;;;;;33.95;15.18;;;7.60;99.90;;;;;;5113086;28;20032;-52
2021/12/16 09:36:15;;;;;;;31.98;14.50;;;7.60;99.90;;;;;;5113048;28;20461;-52
2021/12/16 09:38:42;;;;;;;43.83;19.17;;;7.70;99.90;;;;;;5112353;28;20051;-50
2021/12/16 09:41:09;;;;;;;79.05;18.58;;;7.70;99.90;;;;;;5113090;28;20043;-52
2021/12/16 09:43:39;;;;;;;62.50;17.48;;;7.70;99.90;;;;;;5113129;28;20040;-52
2021/12/16 09:46:08;;;;;;;93.97;20.50;;;7.80;99.90;;;;;;5113182;28;20043;-49
2021/12/16 09:48:35;;;;;;;66.28;19.70;;;7.80;99.90;;;;;;5112816;28;20489;-53
2021/12/16 09:51:04;;;;;;;91.47;20.25;;;7.80;99.90;;;;;;5112844;27;20138;-50
2021/12/16 09:53:31;;;;;;;44.58;18.85;;;7.80;99.90;;;;;;5113067;28;20039;-53
2021/12/16 09:56:00;;;;;;;79.80;19.65;;;7.80;99.90;;;;;;5113025;28;20044;-53
2021/12/16 09:58:32;;;;;;;86.57;20.00;;;7.90;99.90;;;;;;5112856;28;20405;-50
2021/12/16 10:00:58;;;;;;;92.22;20.70;;;7.90;99.90;;;;;;5112576;28;20071;-51
2021/12/16 10:03:26;;;;;;;55.22;18.42;;;7.90;99.90;;;;;;5112714;28;20469;-52
2021/12/16 10:05:51;;;;;;;141.23;20.88;;;7.90;99.90;;;;;;5112719;28;20073;-49
2021/12/16 10:08:17;;;;;;;47.28;18.00;;;7.90;99.90;;;;;;5112936;28;20150;-54
2021/12/16 10:10:43;;;;;;;119.43;22.45;;;7.90;99.90;;;;;;5112637;28;20416;-51
2021/12/16 10:13:09;;;;;;;56.55;20.08;;;7.90;99.90;;;;;;5112829;28;20044;-52
2021/12/16 10:18:12;;;;;;;84.32;20.20;;;8.00;99.90;;;;;;5112802;28;20385;-52
2021/12/16 10:20:59;;;;;;;56.85;17.70;;;8.00;99.90;;;;;;5112430;28;20497;-52
2021/12/16 10:23:34;;;;;;;93.97;19.52;;;8.00;99.90;;;;;;5112706;28;20394;-53
2021/12/16 10:26:09;;;;;;;63.78;18.85;;;8.10;99.90;;;;;;5112397;28;20467;-53
2021/12/16 10:28:41;;;;;;;76.55;18.23;;;8.10;99.90;;;;;;5112393;28;20039;-51
2021/12/16 10:31:13;;;;;;;74.55;17.92;;;8.10;99.90;;;;;;5112456;28;20043;-52
2021/12/16 10:33:43;;;;;;;59.00;17.52;;;8.20;99.90;;;;;;5112700;28;20045;-53
2021/12/16 10:36:30;;;;;;;72.95;19.77;;;8.10;99.90;;;;;;5112514;28;20492;-52
2021/12/16 10:39:01;;;;;;;105.03;19.63;;;8.10;99.90;;;;;;5112593;28;20043;-51
2021/12/16 10:41:37;;;;;;;44.10;17.27;;;8.10;99.90;;;;;;5112508;28;20035;-52
2021/12/16 10:44:14;;;;;;;52.30;16.42;;;8.10;99.90;;;;;;5112686;28;20031;-52
2021/12/16 10:46:45;;;;;;;69.90;18.20;;;8.10;99.90;;;;;;5114092;28;20393;-51
2021/12/16 10:49:15;;;;;;;104.78;20.65;;;8.10;99.90;;;;;;5116775;28;20374;-52
2021/12/16 10:51:50;;;;;;;90.00;20.02;;;8.10;99.90;;;;;;5116472;28;20050;-52
2021/12/16 10:54:17;;;;;;;74.13;18.35;;;8.10;99.90;;;;;;5116417;28;20039;-53
2021/12/16 10:56:57;;;;;;;30.25;16.17;;;8.20;99.90;;;;;;5116132;28;20043;-53
2021/12/16 10:59:24;;;;;;;77.63;17.73;;;8.20;99.90;;;;;;5116318;28;20047;-52
2021/12/16 11:01:56;;;;;;;70.72;16.95;;;8.10;99.90;;;;;;5116321;28;20035;-51
2021/12/16 11:04:38;;;;;;;94.15;20.30;;;8.20;99.90;;;;;;5116013;28;20067;-53
2021/12/16 11:07:09;;;;;;;135.93;19.45;;;8.20;99.90;;;;;;5116383;28;20043;-53
2021/12/16 11:10:02;;;;;;;74.25;18.95;;;8.20;99.90;;;;;;5115804;28;20481;-53
2021/12/16 11:12:51;;;;;;;86.43;19.42;;;8.20;99.90;;;;;;5115834;28;20059;-52
2021/12/16 11:15:30;;;;;;;101.03;20.17;;;8.20;99.90;;;;;;5115926;28;20047;-53
2021/12/16 11:18:13;;;;;;;71.37;19.13;;;8.20;99.90;;;;;;5115911;28;20122;-51
2021/12/16 11:21:11;;;;;;;65.53;16.67;;;8.20;99.90;;;;;;5115675;28;20477;-51
2021/12/16 11:23:40;;;;;;;86.00;21.67;;;8.30;99.90;;;;;;5113503;28;20146;-53
2021/12/16 11:26:14;;;;;;;58.08;17.92;;;8.30;99.90;;;;;;5115684;28;20044;-52
2021/12/16 11:28:48;;;;;;;44.03;17.67;;;8.30;99.90;;;;;;5115923;28;20370;-53
2021/12/16 11:31:17;;;;;;;50.65;17.45;;;8.40;99.90;;;;;;5115614;28;20362;-52
2021/12/16 11:33:57;;;;;;;101.00;20.95;;;8.40;99.90;;;;;;5115337;28;20043;-52
2021/12/16 11:36:29;;;;;;;;;;;8.40;99.90;;;;;;5115764;28;20054;-53
2021/12/16 11:39:00;;;;;;;59.60;18.55;;;8.40;99.90;;;;;;5115343;27;20266;-54
2021/12/16 11:41:40;;;;;;;66.15;18.30;;;8.40;99.90;;;;;;5115295;28;20397;-50
2021/12/16 11:44:18;;;;;;;87.22;19.98;;;8.50;99.90;;;;;;5115256;28;20118;-53
2021/12/16 11:46:52;;;;;;;39.72;18.38;;;8.50;99.90;;;;;;5114465;27;20048;-50
2021/12/16 11:49:31;;;;;;;57.00;18.10;;;8.50;99.90;;;;;;5115434;28;20067;-53
2021/12/16 11:52:05;;;;;;;63.03;18.58;;;8.50;99.90;;;;;;5115356;28;20047;-52
2021/12/16 11:54:39;;;;;;;46.30;19.08;;;8.50;99.90;;;;;;5115258;28;20071;-51
2021/12/16 11:57:09;;;;;;;28.23;17.60;;;8.50;99.90;;;;;;5114544;28;20046;-49
2021/12/16 11:59:48;;;;;;;54.28;20.33;;;8.60;99.90;;;;;;5114385;28;20040;-52
2021/12/16 12:02:39;;;;;;;42.67;17.92;;;8.60;99.90;;;;;;5114911;28;20039;-51
2021/12/16 12:05:22;;;;;;;56.85;20.08;;;8.60;99.90;;;;;;5114568;28;20036;-52
2021/12/16 12:07:58;;;;;;;42.70;19.70;;;8.60;99.90;;;;;;5115270;28;20050;-53
2021/12/16 12:10:42;;;;;;;41.47;19.25;;;8.60;99.90;;;;;;5115165;28;20100;-52
2021/12/16 12:13:12;;;;;;;43.38;18.92;;;8.60;99.90;;;;;;5114526;28;20122;-52
2021/12/16 12:16:09;;;;;;;47.50;19.15;;;8.70;99.90;;;;;;5114548;28;20048;-53
2021/12/16 12:18:46;;;;;;;39.80;18.08;;;8.70;99.90;;;;;;5114632;28;20142;-51
2021/12/16 12:21:26;;;;;;;62.95;19.88;;;8.70;99.90;;;;;;5114785;28;20047;-52
2021/12/16 12:23:55;;;;;;;41.03;18.80;;;8.70;99.90;;;;;;5114793;28;20043;-52
2021/12/16 12:26:22;;;;;;;36.53;17.55;;;8.70;99.90;;;;;;5114511;28;20036;-51
2021/12/16 12:28:52;;;;;;;60.10;19.75;;;8.80;99.90;;;;;;5114586;28;20035;-52
2021/12/16 12:31:21;;;;;;;47.78;19.33;;;8.80;99.90;;;;;;5114690;28;20040;-51
2021/12/16 12:33:47;;;;;;;47.33;18.63;;;8.80;99.90;;;;;;5114699;28;20046;-52
2021/12/16 12:36:15;;;;;;;42.45;18.73;;;8.80;99.90;;;;;;5114401;28;20481;-53
2021/12/16 12:38:41;;;;;;;34.85;17.85;;;8.80;99.90;;;;;;5114358;28;20039;-50
2021/12/16 12:41:07;;;;;;;43.40;18.45;;;8.80;99.90;;;;;;5114049;28;20036;-51
2021/12/16 12:43:34;;;;;;;29.58;17.08;;;8.80;99.90;;;;;;5114234;28;20075;-53
2021/12/16 12:46:03;;;;;;;38.45;17.25;;;8.80;99.90;;;;;;5113966;28;20207;-53
2021/12/16 12:48:31;;;;;;;39.53;16.90;;;8.90;99.90;;;;;;5114007;28;20085;-51
2021/12/16 12:50:58;;;;;;;31.55;16.38;;;8.90;99.90;;;;;;5113618;28;20040;-52
2021/12/16 12:53:31;;;;;;;36.03;17.67;;;8.90;99.90;;;;;;5114059;28;20075;-52
2021/12/16 12:56:11;;;;;;;34.35;16.98;;;8.90;99.90;;;;;;5113917;28;20598;-52
2021/12/16 12:59:11;;;;;;;33.40;16.70;;;8.90;99.90;;;;;;5114112;28;20443;-53
2021/12/16 13:01:55;;;;;;;38.15;17.95;;;9.00;99.90;;;;;;5113963;28;20100;-51
2021/12/16 13:04:25;;;;;;;40.13;18.55;;;9.00;99.90;;;;;;5113753;28;20040;-52
2021/12/16 13:06:54;;;;;;;39.42;18.17;;;9.00;99.90;;;;;;5113830;28;20046;-53
2021/12/16 13:09:22;;;;;;;40.25;18.17;;;9.00;99.90;;;;;;5113474;28;20123;-51
2021/12/16 13:11:48;;;;;;;33.72;17.65;;;9.00;99.90;;;;;;5113666;27;20060;-53
2021/12/16 13:14:27;;;;;;;39.95;19.15;;;9.00;99.90;;;;;;5113869;28;20088;-52
2021/12/16 13:17:31;;;;;;;45.83;19.33;;;9.00;99.90;;;;;;5113751;28;20054;-52
2021/12/16 13:31:49;;;;;;;40.97;18.27;;;9.00;99.90;;;;;;5113161;28;20047;-53
2021/12/16 13:34:43;;;;;;;46.42;18.50;;;9.00;99.90;;;;;;5113506;28;20048;-53
2021/12/16 13:37:21;;;;;;;47.60;19.23;;;9.00;99.90;;;;;;5113030;28;20043;-53
2021/12/16 13:39:51;;;;;;;45.78;18.85;;;9.00;99.90;;;;;;5113185;27;20546;-53
2021/12/16 13:42:17;;;;;;;44.47;17.42;;;9.00;99.90;;;;;;5113340;28;20385;-53
2021/12/16 13:45:00;;;;;;;43.17;18.42;;;9.00;99.90;;;;;;5112107;27;20085;-52
2021/12/16 13:47:41;;;;;;;43.67;18.80;;;9.00;99.90;;;;;;5113135;28;20043;-52
2021/12/16 14:02:26;;;;;;;37.22;14.32;;;9.10;99.90;;;;;;5112866;28;20035;-52
2021/12/16 14:07:59;;;;;;;32.45;12.73;;;9.10;99.90;;;;;;5112892;28;20044;-52
2021/12/16 14:10:58;;;;;;;28.80;11.32;;;9.10;99.90;;;;;;5112625;28;20454;-51
2021/12/16 14:14:21;;;;;;;28.05;11.48;;;9.10;99.90;;;;;;5112825;28;20052;-52
2021/12/16 14:26:06;;;;;;;31.60;12.95;;;9.00;99.90;;;;;;5116824;28;20032;-53
2021/12/16 14:31:38;;;;;;;30.95;13.15;;;9.10;99.90;;;;;;5117019;28;20062;-52
2021/12/16 14:39:53;;;;;;;32.03;13.95;;;9.00;99.90;;;;;;5116821;28;20055;-52
2021/12/16 14:50:11;;;;;;;37.15;14.68;;;9.00;99.90;;;;;;5115431;28;20618;-53
2021/12/16 14:52:38;;;;;;;37.83;14.02;;;9.00;99.90;;;;;;5116287;28;20039;-52
2021/12/16 14:55:12;;;;;;;42.58;14.48;;;9.00;99.90;;;;;;5116608;28;20114;-53
2021/12/16 14:57:43;;;;;;;34.88;12.98;;;9.00;99.90;;;;;;5116323;28;20085;-51
2021/12/16 15:00:21;;;;;;;33.10;13.25;;;9.00;99.90;;;;;;5115191;28;20044;-52
2021/12/16 15:02:57;;;;;;;30.52;13.60;;;9.00;99.90;;;;;;5115426;28;20392;-50
2021/12/16 15:05:39;;;;;;;39.67;14.02;;;9.00;99.90;;;;;;5116342;28;20040;-52
2021/12/16 15:08:34;;;;;;;32.28;13.13;;;8.90;99.90;;;;;;5115991;28;20500;-52
2021/12/16 15:11:01;;;;;;;35.25;14.40;;;8.90;99.90;;;;;;5116020;28;20762;-50
2021/12/16 15:13:39;;;;;;;30.75;14.25;;;8.90;99.90;;;;;;5115976;28;20790;-51
2021/12/16 15:16:43;;;;;;;37.88;14.43;;;8.90;99.90;;;;;;5115913;28;20032;-52
2021/12/16 15:38:41;;;;;;;26.38;12.07;;;8.80;99.90;;;;;;5115591;28;20039;-53
2021/12/16 15:43:56;;;;;;;30.65;13.50;;;8.80;99.90;;;;;;5115562;28;20043;-53
2021/12/16 15:46:27;;;;;;;28.27;12.52;;;8.70;99.90;;;;;;5115536;28;20497;-52
2021/12/16 15:48:54;;;;;;;27.35;13.13;;;8.70;99.90;;;;;;5115224;28;20114;-52
2021/12/16 15:51:23;;;;;;;26.42;12.68;;;8.70;99.90;;;;;;5115368;28;20039;-51
2021/12/16 15:53:55;;;;;;;28.80;13.98;;;8.80;99.90;;;;;;5115382;28;20040;-54
2021/12/16 15:56:37;;;;;;;26.35;13.75;;;8.70;99.90;;;;;;5115269;28;20405;-51
2021/12/16 15:59:12;;;;;;;27.63;13.27;;;8.70;99.90;;;;;;5115079;28;20105;-51
2021/12/16 16:01:40;;;;;;;32.30;14.95;;;8.70;99.90;;;;;;5115312;28;20097;-51
2021/12/16 16:04:13;;;;;;;31.95;14.93;;;8.70;99.90;;;;;;5115287;28;20117;-51
2021/12/16 16:06:44;;;;;;;26.27;14.13;;;8.70;99.90;;;;;;5115577;27;20139;-52
2021/12/16 16:09:10;;;;;;;29.38;14.57;;;8.80;99.90;;;;;;5114987;28;20036;-53
2021/12/16 16:11:38;;;;;;;26.10;14.85;;;8.80;99.90;;;;;;5114590;27;20059;-50
2021/12/16 16:14:06;;;;;;;28.70;15.05;;;8.80;99.90;;;;;;5114818;28;20043;-53
2021/12/16 16:16:40;;;;;;;29.38;16.05;;;8.80;99.90;;;;;;5113716;28;20043;-50
2021/12/16 16:19:09;;;;;;;31.75;15.57;;;8.80;99.90;;;;;;5114751;28;20043;-51
2021/12/16 16:21:42;;;;;;;25.85;14.20;;;8.90;99.90;;;;;;5115040;28;20043;-52
2021/12/16 16:24:22;;;;;;;31.58;15.57;;;8.80;99.90;;;;;;5114611;28;20389;-53
2021/12/16 16:26:50;;;;;;;32.63;15.40;;;8.90;99.90;;;;;;5114825;28;20031;-51
2021/12/16 16:29:20;;;;;;;31.00;15.73;;;8.90;99.90;;;;;;5114855;28;20047;-52
2021/12/16 16:31:48;;;;;;;33.28;15.50;;;8.90;99.90;;;;;;5114542;28;20103;-52
2021/12/16 16:34:17;;;;;;;37.45;16.13;;;8.80;99.90;;;;;;5114326;28;20032;-53
2021/12/16 16:36:45;;;;;;;32.85;16.58;;;8.90;99.90;;;;;;5114750;28;20066;-53
2021/12/16 16:39:16;;;;;;;41.47;17.30;;;8.90;99.90;;;;;;5114514;28;20044;-51
2021/12/16 16:41:52;;;;;;;39.78;18.58;;;8.90;99.90;;;;;;5114245;28;20031;-53